sensor_id;sensor_type;location;lat;lon;timestamp;P1;durP1;ratioP1;P2;durP2;ratioP2
27744;SDS011;61387;48.112;8.616;2023-05-10T00:00:20;1.27;;;0.20;;
27744;SDS011;61387;48.112;8.616;2023-05-10T00:02:47;0.60;;;0.20;;
27744;SDS011;61387;48.112;8.616;2023-05-10T00:05:13;1.20;;;0.60;;
27744;SDS011;61387;48.112;8.616;2023-05-10T00:07:39;1.37;;;0.20;;
27744;SDS011;61387;48.112;8.616;2023-05-10T00:10:06;0.30;;;0.30;;
27744;SDS011;61387;48.112;8.616;2023-05-10T00:12:31;0.30;;;0.17;;
27744;SDS011;61387;48.112;8.616;2023-05-10T00:14:57;0.53;;;0.20;;
27744;SDS011;61387;48.112;8.616;2023-05-10T00:17:23;0.30;;;0.13;;
27744;SDS011;61387;48.112;8.616;2023-05-10T00:19:49;0.30;;;0.20;;
27744;SDS011;61387;48.112;8.616;2023-05-10T00:22:15;0.23;;;0.20;;
27744;SDS011;61387;48.112;8.616;2023-05-10T00:24:41;1.50;;;0.30;;
27744;SDS011;61387;48.112;8.616;2023-05-10T00:27:06;0.97;;;0.30;;
27744;SDS011;61387;48.112;8.616;2023-05-10T00:29:33;0.17;;;0.13;;
27744;SDS011;61387;48.112;8.616;2023-05-10T00:31:59;0.60;;;0.27;;
27744;SDS011;61387;48.112;8.616;2023-05-10T00:34:24;1.83;;;0.80;;
27744;SDS011;61387;48.112;8.616;2023-05-10T00:36:50;4.47;;;0.83;;
27744;SDS011;61387;48.112;8.616;2023-05-10T00:39:16;2.03;;;0.70;;
27744;SDS011;61387;48.112;8.616;2023-05-10T00:41:42;2.90;;;1.13;;
27744;SDS011;61387;48.112;8.616;2023-05-10T00:44:08;2.03;;;0.77;;
27744;SDS011;61387;48.112;8.616;2023-05-10T00:46:34;0.40;;;0.40;;
27744;SDS011;61387;48.112;8.616;2023-05-10T00:49:00;2.20;;;0.40;;
27744;SDS011;61387;48.112;8.616;2023-05-10T00:51:25;2.10;;;0.40;;
27744;SDS011;61387;48.112;8.616;2023-05-10T00:53:51;0.80;;;0.40;;
27744;SDS011;61387;48.112;8.616;2023-05-10T00:56:17;0.60;;;0.50;;
27744;SDS011;61387;48.112;8.616;2023-05-10T00:58:45;3.03;;;0.53;;
27744;SDS011;61387;48.112;8.616;2023-05-10T01:01:11;0.80;;;0.33;;
27744;SDS011;61387;48.112;8.616;2023-05-10T01:03:37;0.70;;;0.27;;
27744;SDS011;61387;48.112;8.616;2023-05-10T01:06:04;1.43;;;0.70;;
27744;SDS011;61387;48.112;8.616;2023-05-10T01:08:30;1.10;;;0.30;;
27744;SDS011;61387;48.112;8.616;2023-05-10T01:10:56;0.90;;;0.30;;
27744;SDS011;61387;48.112;8.616;2023-05-10T01:13:36;1.80;;;0.40;;
27744;SDS011;61387;48.112;8.616;2023-05-10T01:16:03;1.90;;;0.50;;
27744;SDS011;61387;48.112;8.616;2023-05-10T01:18:30;0.27;;;0.20;;
27744;SDS011;61387;48.112;8.616;2023-05-10T01:21:22;1.13;;;0.20;;
27744;SDS011;61387;48.112;8.616;2023-05-10T01:32:10;0.63;;;0.20;;
27744;SDS011;61387;48.112;8.616;2023-05-10T01:34:42;0.20;;;0.20;;
27744;SDS011;61387;48.112;8.616;2023-05-10T01:37:21;0.37;;;0.37;;
27744;SDS011;61387;48.112;8.616;2023-05-10T01:39:55;0.67;;;0.40;;
27744;SDS011;61387;48.112;8.616;2023-05-10T01:42:28;0.30;;;0.20;;
27744;SDS011;61387;48.112;8.616;2023-05-10T01:48:28;2.77;;;0.50;;
27744;SDS011;61387;48.112;8.616;2023-05-10T01:50:36;0.23;;;0.20;;
27744;SDS011;61387;48.112;8.616;2023-05-10T01:53:08;0.87;;;0.40;;
27744;SDS011;61387;48.112;8.616;2023-05-10T01:55:39;0.37;;;0.37;;
27744;SDS011;61387;48.112;8.616;2023-05-10T01:58:12;0.30;;;0.30;;
27744;SDS011;61387;48.112;8.616;2023-05-10T02:00:41;2.07;;;0.30;;
27744;SDS011;61387;48.112;8.616;2023-05-10T02:03:09;1.23;;;0.50;;
27744;SDS011;61387;48.112;8.616;2023-05-10T02:05:36;0.60;;;0.30;;
27744;SDS011;61387;48.112;8.616;2023-05-10T02:08:02;1.67;;;0.40;;
27744;SDS011;61387;48.112;8.616;2023-05-10T02:10:32;1.43;;;0.83;;
27744;SDS011;61387;48.112;8.616;2023-05-10T02:12:58;2.07;;;0.70;;
27744;SDS011;61387;48.112;8.616;2023-05-10T02:15:25;1.13;;;0.70;;
27744;SDS011;61387;48.112;8.616;2023-05-10T02:17:52;1.63;;;0.50;;
27744;SDS011;61387;48.112;8.616;2023-05-10T02:20:20;0.50;;;0.30;;
27744;SDS011;61387;48.112;8.616;2023-05-10T02:22:48;2.00;;;0.30;;
27744;SDS011;61387;48.112;8.616;2023-05-10T02:25:14;1.80;;;0.53;;
27744;SDS011;61387;48.112;8.616;2023-05-10T02:27:41;2.00;;;0.67;;
27744;SDS011;61387;48.112;8.616;2023-05-10T02:30:08;1.50;;;0.70;;
27744;SDS011;61387;48.112;8.616;2023-05-10T02:32:35;0.90;;;0.40;;
27744;SDS011;61387;48.112;8.616;2023-05-10T02:35:02;2.53;;;0.70;;
27744;SDS011;61387;48.112;8.616;2023-05-10T02:37:28;1.63;;;0.60;;
27744;SDS011;61387;48.112;8.616;2023-05-10T02:39:55;0.70;;;0.70;;
27744;SDS011;61387;48.112;8.616;2023-05-10T02:42:26;1.77;;;0.60;;
27744;SDS011;61387;48.112;8.616;2023-05-10T02:44:53;2.10;;;0.60;;
27744;SDS011;61387;48.112;8.616;2023-05-10T02:47:24;4.10;;;0.50;;
27744;SDS011;61387;48.112;8.616;2023-05-10T02:49:50;1.30;;;0.40;;
27744;SDS011;61387;48.112;8.616;2023-05-10T02:52:18;2.43;;;0.70;;
27744;SDS011;61387;48.112;8.616;2023-05-10T02:54:49;0.30;;;0.30;;
27744;SDS011;61387;48.112;8.616;2023-05-10T02:57:17;0.60;;;0.40;;
27744;SDS011;61387;48.112;8.616;2023-05-10T02:59:55;3.47;;;0.67;;
27744;SDS011;61387;48.112;8.616;2023-05-10T03:02:21;2.40;;;0.73;;
27744;SDS011;61387;48.112;8.616;2023-05-10T03:04:47;1.13;;;0.43;;
27744;SDS011;61387;48.112;8.616;2023-05-10T03:07:12;3.90;;;0.60;;
27744;SDS011;61387;48.112;8.616;2023-05-10T03:09:39;1.77;;;0.90;;
27744;SDS011;61387;48.112;8.616;2023-05-10T03:12:14;1.37;;;0.60;;
27744;SDS011;61387;48.112;8.616;2023-05-10T03:17:38;2.43;;;0.67;;
27744;SDS011;61387;48.112;8.616;2023-05-10T03:20:30;2.07;;;0.70;;
27744;SDS011;61387;48.112;8.616;2023-05-10T03:23:02;3.90;;;0.80;;
27744;SDS011;61387;48.112;8.616;2023-05-10T03:25:39;1.40;;;0.80;;
27744;SDS011;61387;48.112;8.616;2023-05-10T03:28:06;2.10;;;0.57;;
27744;SDS011;61387;48.112;8.616;2023-05-10T03:30:32;0.87;;;0.47;;
27744;SDS011;61387;48.112;8.616;2023-05-10T03:32:58;1.60;;;0.70;;
27744;SDS011;61387;48.112;8.616;2023-05-10T03:35:31;2.63;;;0.80;;
27744;SDS011;61387;48.112;8.616;2023-05-10T03:37:57;1.43;;;0.57;;
27744;SDS011;61387;48.112;8.616;2023-05-10T03:40:23;2.00;;;0.90;;
27744;SDS011;61387;48.112;8.616;2023-05-10T03:42:49;1.03;;;0.60;;
27744;SDS011;61387;48.112;8.616;2023-05-10T03:45:15;1.33;;;0.60;;
27744;SDS011;61387;48.112;8.616;2023-05-10T03:47:41;3.43;;;1.30;;
27744;SDS011;61387;48.112;8.616;2023-05-10T03:50:07;3.00;;;0.93;;
27744;SDS011;61387;48.112;8.616;2023-05-10T03:52:33;5.27;;;1.30;;
27744;SDS011;61387;48.112;8.616;2023-05-10T03:54:58;8.67;;;4.40;;
27744;SDS011;61387;48.112;8.616;2023-05-10T03:57:24;3.03;;;1.60;;
27744;SDS011;61387;48.112;8.616;2023-05-10T03:59:50;2.40;;;1.30;;
27744;SDS011;61387;48.112;8.616;2023-05-10T04:02:16;3.00;;;1.13;;
27744;SDS011;61387;48.112;8.616;2023-05-10T04:04:42;1.70;;;1.00;;
27744;SDS011;61387;48.112;8.616;2023-05-10T04:07:07;3.27;;;1.20;;
27744;SDS011;61387;48.112;8.616;2023-05-10T04:09:35;1.67;;;0.80;;
27744;SDS011;61387;48.112;8.616;2023-05-10T04:12:01;2.07;;;0.80;;
27744;SDS011;61387;48.112;8.616;2023-05-10T04:14:27;5.57;;;0.90;;
27744;SDS011;61387;48.112;8.616;2023-05-10T04:16:53;1.23;;;0.50;;
27744;SDS011;61387;48.112;8.616;2023-05-10T04:19:20;1.53;;;0.60;;
27744;SDS011;61387;48.112;8.616;2023-05-10T04:21:46;0.67;;;0.50;;
27744;SDS011;61387;48.112;8.616;2023-05-10T04:24:12;1.73;;;0.80;;
27744;SDS011;61387;48.112;8.616;2023-05-10T04:26:37;2.93;;;0.60;;
27744;SDS011;61387;48.112;8.616;2023-05-10T04:29:03;2.67;;;0.73;;
27744;SDS011;61387;48.112;8.616;2023-05-10T04:31:29;0.50;;;0.40;;
27744;SDS011;61387;48.112;8.616;2023-05-10T04:33:55;1.23;;;0.43;;
27744;SDS011;61387;48.112;8.616;2023-05-10T04:36:21;2.40;;;0.70;;
27744;SDS011;61387;48.112;8.616;2023-05-10T04:38:47;1.70;;;0.63;;
27744;SDS011;61387;48.112;8.616;2023-05-10T04:41:13;3.47;;;0.70;;
27744;SDS011;61387;48.112;8.616;2023-05-10T04:43:39;2.90;;;0.50;;
27744;SDS011;61387;48.112;8.616;2023-05-10T04:46:05;1.67;;;0.67;;
27744;SDS011;61387;48.112;8.616;2023-05-10T04:48:34;1.70;;;0.70;;
27744;SDS011;61387;48.112;8.616;2023-05-10T04:51:00;3.53;;;0.60;;
27744;SDS011;61387;48.112;8.616;2023-05-10T04:53:26;1.73;;;0.77;;
27744;SDS011;61387;48.112;8.616;2023-05-10T04:55:52;4.23;;;1.00;;
27744;SDS011;61387;48.112;8.616;2023-05-10T04:58:18;3.67;;;1.27;;
27744;SDS011;61387;48.112;8.616;2023-05-10T05:00:44;1.20;;;0.80;;
27744;SDS011;61387;48.112;8.616;2023-05-10T05:03:10;3.17;;;1.10;;
27744;SDS011;61387;48.112;8.616;2023-05-10T05:05:35;1.87;;;1.43;;
27744;SDS011;61387;48.112;8.616;2023-05-10T05:08:01;2.73;;;1.30;;
27744;SDS011;61387;48.112;8.616;2023-05-10T05:10:27;4.70;;;1.10;;
27744;SDS011;61387;48.112;8.616;2023-05-10T05:12:53;3.57;;;1.60;;
27744;SDS011;61387;48.112;8.616;2023-05-10T05:15:19;3.47;;;1.53;;
27744;SDS011;61387;48.112;8.616;2023-05-10T05:17:45;2.07;;;1.30;;
27744;SDS011;61387;48.112;8.616;2023-05-10T05:20:10;1.67;;;1.20;;
27744;SDS011;61387;48.112;8.616;2023-05-10T05:22:37;3.27;;;1.03;;
27744;SDS011;61387;48.112;8.616;2023-05-10T05:25:04;2.90;;;1.00;;
27744;SDS011;61387;48.112;8.616;2023-05-10T05:27:30;1.30;;;0.80;;
27744;SDS011;61387;48.112;8.616;2023-05-10T05:29:56;1.90;;;1.20;;
27744;SDS011;61387;48.112;8.616;2023-05-10T05:32:41;1.00;;;0.70;;
27744;SDS011;61387;48.112;8.616;2023-05-10T05:35:06;2.73;;;1.20;;
27744;SDS011;61387;48.112;8.616;2023-05-10T05:37:33;3.53;;;1.20;;
27744;SDS011;61387;48.112;8.616;2023-05-10T05:39:58;1.93;;;1.20;;
27744;SDS011;61387;48.112;8.616;2023-05-10T05:42:26;5.07;;;1.53;;
27744;SDS011;61387;48.112;8.616;2023-05-10T05:44:52;5.13;;;1.30;;
27744;SDS011;61387;48.112;8.616;2023-05-10T05:47:17;1.70;;;1.10;;
27744;SDS011;61387;48.112;8.616;2023-05-10T05:49:43;3.07;;;2.03;;
27744;SDS011;61387;48.112;8.616;2023-05-10T05:52:12;3.60;;;2.20;;
27744;SDS011;61387;48.112;8.616;2023-05-10T05:54:38;6.23;;;3.40;;
27744;SDS011;61387;48.112;8.616;2023-05-10T05:57:04;12.00;;;4.27;;
27744;SDS011;61387;48.112;8.616;2023-05-10T05:59:30;6.50;;;3.50;;
27744;SDS011;61387;48.112;8.616;2023-05-10T06:01:56;4.53;;;2.33;;
27744;SDS011;61387;48.112;8.616;2023-05-10T06:04:22;3.43;;;1.57;;
27744;SDS011;61387;48.112;8.616;2023-05-10T06:06:48;2.47;;;1.40;;
27744;SDS011;61387;48.112;8.616;2023-05-10T06:09:14;1.50;;;1.03;;
27744;SDS011;61387;48.112;8.616;2023-05-10T06:11:40;2.78;;;0.95;;
27744;SDS011;61387;48.112;8.616;2023-05-10T06:14:05;2.67;;;1.50;;
27744;SDS011;61387;48.112;8.616;2023-05-10T06:16:33;1.30;;;1.00;;
27744;SDS011;61387;48.112;8.616;2023-05-10T06:18:59;9.57;;;4.13;;
27744;SDS011;61387;48.112;8.616;2023-05-10T06:21:40;4.13;;;2.20;;
27744;SDS011;61387;48.112;8.616;2023-05-10T06:24:05;3.73;;;1.80;;
27744;SDS011;61387;48.112;8.616;2023-05-10T06:26:31;5.03;;;1.60;;
27744;SDS011;61387;48.112;8.616;2023-05-10T06:28:57;5.77;;;1.70;;
27744;SDS011;61387;48.112;8.616;2023-05-10T06:31:23;2.57;;;1.40;;
27744;SDS011;61387;48.112;8.616;2023-05-10T06:33:49;4.40;;;1.37;;
27744;SDS011;61387;48.112;8.616;2023-05-10T06:36:15;1.77;;;0.97;;
27744;SDS011;61387;48.112;8.616;2023-05-10T06:38:41;5.37;;;1.47;;
27744;SDS011;61387;48.112;8.616;2023-05-10T06:41:26;1.13;;;0.70;;
27744;SDS011;61387;48.112;8.616;2023-05-10T06:43:51;3.53;;;1.00;;
27744;SDS011;61387;48.112;8.616;2023-05-10T06:46:17;2.93;;;0.90;;
27744;SDS011;61387;48.112;8.616;2023-05-10T06:48:43;2.93;;;0.70;;
27744;SDS011;61387;48.112;8.616;2023-05-10T06:51:09;0.97;;;0.63;;
27744;SDS011;61387;48.112;8.616;2023-05-10T06:53:35;1.70;;;1.10;;
27744;SDS011;61387;48.112;8.616;2023-05-10T06:56:01;2.77;;;0.83;;
27744;SDS011;61387;48.112;8.616;2023-05-10T06:58:28;1.67;;;0.80;;
27744;SDS011;61387;48.112;8.616;2023-05-10T07:00:54;2.27;;;0.97;;
27744;SDS011;61387;48.112;8.616;2023-05-10T07:03:19;0.80;;;0.70;;
27744;SDS011;61387;48.112;8.616;2023-05-10T07:05:45;1.83;;;0.80;;
27744;SDS011;61387;48.112;8.616;2023-05-10T07:08:11;6.33;;;3.70;;
27744;SDS011;61387;48.112;8.616;2023-05-10T07:10:38;1.03;;;0.70;;
27744;SDS011;61387;48.112;8.616;2023-05-10T07:13:04;1.53;;;1.20;;
27744;SDS011;61387;48.112;8.616;2023-05-10T07:15:30;0.90;;;0.80;;
27744;SDS011;61387;48.112;8.616;2023-05-10T07:17:56;1.67;;;0.53;;
27744;SDS011;61387;48.112;8.616;2023-05-10T07:20:22;2.83;;;1.00;;
27744;SDS011;61387;48.112;8.616;2023-05-10T07:22:47;1.27;;;0.90;;
27744;SDS011;61387;48.112;8.616;2023-05-10T07:25:13;1.43;;;1.00;;
27744;SDS011;61387;48.112;8.616;2023-05-10T07:27:39;1.60;;;1.07;;
27744;SDS011;61387;48.112;8.616;2023-05-10T07:30:05;3.77;;;1.70;;
27744;SDS011;61387;48.112;8.616;2023-05-10T07:32:32;1.23;;;0.60;;
27744;SDS011;61387;48.112;8.616;2023-05-10T07:34:57;1.43;;;0.60;;
27744;SDS011;61387;48.112;8.616;2023-05-10T07:37:23;1.47;;;0.50;;
27744;SDS011;61387;48.112;8.616;2023-05-10T07:39:49;0.80;;;0.40;;
27744;SDS011;61387;48.112;8.616;2023-05-10T07:45:05;1.90;;;0.93;;
27744;SDS011;61387;48.112;8.616;2023-05-10T07:47:37;3.60;;;0.80;;
27744;SDS011;61387;48.112;8.616;2023-05-10T07:50:03;1.57;;;1.10;;
27744;SDS011;61387;48.112;8.616;2023-05-10T07:52:29;2.83;;;0.97;;
27744;SDS011;61387;48.112;8.616;2023-05-10T07:54:55;1.10;;;0.70;;
27744;SDS011;61387;48.112;8.616;2023-05-10T07:57:21;3.23;;;1.33;;
27744;SDS011;61387;48.112;8.616;2023-05-10T07:59:47;3.70;;;0.80;;
27744;SDS011;61387;48.112;8.616;2023-05-10T08:02:13;2.03;;;1.07;;
27744;SDS011;61387;48.112;8.616;2023-05-10T08:04:46;2.47;;;1.37;;
27744;SDS011;61387;48.112;8.616;2023-05-10T08:07:17;7.20;;;3.90;;
27744;SDS011;61387;48.112;8.616;2023-05-10T08:09:59;5.87;;;2.93;;
27744;SDS011;61387;48.112;8.616;2023-05-10T08:12:24;2.07;;;0.73;;
27744;SDS011;61387;48.112;8.616;2023-05-10T08:14:54;2.60;;;1.33;;
27744;SDS011;61387;48.112;8.616;2023-05-10T08:17:21;6.27;;;1.97;;
27744;SDS011;61387;48.112;8.616;2023-05-10T08:19:57;0.90;;;0.60;;
27744;SDS011;61387;48.112;8.616;2023-05-10T08:22:23;0.73;;;0.67;;
27744;SDS011;61387;48.112;8.616;2023-05-10T08:24:49;2.23;;;0.80;;
27744;SDS011;61387;48.112;8.616;2023-05-10T08:27:14;0.80;;;0.57;;
27744;SDS011;61387;48.112;8.616;2023-05-10T08:29:40;3.23;;;0.70;;
27744;SDS011;61387;48.112;8.616;2023-05-10T08:32:06;1.60;;;1.00;;
27744;SDS011;61387;48.112;8.616;2023-05-10T08:34:32;1.33;;;1.03;;
27744;SDS011;61387;48.112;8.616;2023-05-10T08:36:58;1.67;;;0.90;;
27744;SDS011;61387;48.112;8.616;2023-05-10T08:39:24;0.60;;;0.60;;
27744;SDS011;61387;48.112;8.616;2023-05-10T08:41:59;2.40;;;0.50;;
27744;SDS011;61387;48.112;8.616;2023-05-10T08:44:29;2.20;;;1.00;;
27744;SDS011;61387;48.112;8.616;2023-05-10T08:46:57;1.87;;;0.50;;
27744;SDS011;61387;48.112;8.616;2023-05-10T08:49:23;0.50;;;0.30;;
27744;SDS011;61387;48.112;8.616;2023-05-10T08:51:53;1.03;;;0.70;;
27744;SDS011;61387;48.112;8.616;2023-05-10T08:54:20;1.40;;;0.50;;
27744;SDS011;61387;48.112;8.616;2023-05-10T08:56:47;2.40;;;0.30;;
27744;SDS011;61387;48.112;8.616;2023-05-10T08:59:13;0.87;;;0.40;;
27744;SDS011;61387;48.112;8.616;2023-05-10T09:01:40;0.67;;;0.40;;
27744;SDS011;61387;48.112;8.616;2023-05-10T09:04:07;0.57;;;0.30;;
27744;SDS011;61387;48.112;8.616;2023-05-10T09:06:33;1.80;;;0.40;;
27744;SDS011;61387;48.112;8.616;2023-05-10T09:08:59;2.10;;;0.50;;
27744;SDS011;61387;48.112;8.616;2023-05-10T09:11:26;0.70;;;0.40;;
27744;SDS011;61387;48.112;8.616;2023-05-10T09:13:54;0.87;;;0.40;;
27744;SDS011;61387;48.112;8.616;2023-05-10T09:16:20;0.53;;;0.53;;
27744;SDS011;61387;48.112;8.616;2023-05-10T09:18:46;1.60;;;0.70;;
27744;SDS011;61387;48.112;8.616;2023-05-10T09:21:12;0.97;;;0.67;;
27744;SDS011;61387;48.112;8.616;2023-05-10T09:23:42;1.80;;;0.70;;
27744;SDS011;61387;48.112;8.616;2023-05-10T09:26:08;0.50;;;0.50;;
27744;SDS011;61387;48.112;8.616;2023-05-10T09:28:35;0.97;;;0.60;;
27744;SDS011;61387;48.112;8.616;2023-05-10T09:31:19;1.77;;;0.53;;
27744;SDS011;61387;48.112;8.616;2023-05-10T09:33:45;1.47;;;0.50;;
27744;SDS011;61387;48.112;8.616;2023-05-10T09:36:12;1.80;;;0.90;;
27744;SDS011;61387;48.112;8.616;2023-05-10T09:38:48;1.53;;;0.80;;
27744;SDS011;61387;48.112;8.616;2023-05-10T09:41:16;1.90;;;0.73;;
27744;SDS011;61387;48.112;8.616;2023-05-10T09:43:48;0.60;;;0.60;;
27744;SDS011;61387;48.112;8.616;2023-05-10T09:46:15;3.23;;;1.20;;
27744;SDS011;61387;48.112;8.616;2023-05-10T09:48:45;1.63;;;0.80;;
27744;SDS011;61387;48.112;8.616;2023-05-10T09:51:24;1.90;;;0.80;;
27744;SDS011;61387;48.112;8.616;2023-05-10T09:54:11;2.20;;;0.50;;
27744;SDS011;61387;48.112;8.616;2023-05-10T09:56:39;0.90;;;0.53;;
27744;SDS011;61387;48.112;8.616;2023-05-10T09:59:06;2.20;;;0.70;;
27744;SDS011;61387;48.112;8.616;2023-05-10T10:01:34;2.80;;;0.70;;
27744;SDS011;61387;48.112;8.616;2023-05-10T10:04:07;1.17;;;0.60;;
27744;SDS011;61387;48.112;8.616;2023-05-10T10:09:34;2.67;;;0.63;;
27744;SDS011;61387;48.112;8.616;2023-05-10T10:12:01;4.97;;;0.87;;
27744;SDS011;61387;48.112;8.616;2023-05-10T10:14:27;1.93;;;0.93;;
27744;SDS011;61387;48.112;8.616;2023-05-10T10:16:53;2.27;;;0.90;;
27744;SDS011;61387;48.112;8.616;2023-05-10T10:19:20;1.47;;;0.63;;
27744;SDS011;61387;48.112;8.616;2023-05-10T10:21:46;2.90;;;0.60;;
27744;SDS011;61387;48.112;8.616;2023-05-10T10:24:12;3.30;;;0.90;;
27744;SDS011;61387;48.112;8.616;2023-05-10T10:26:38;1.67;;;0.63;;
27744;SDS011;61387;48.112;8.616;2023-05-10T10:32:12;2.90;;;1.00;;
27744;SDS011;61387;48.112;8.616;2023-05-10T10:34:53;4.70;;;0.77;;
27744;SDS011;61387;48.112;8.616;2023-05-10T10:37:20;2.20;;;0.63;;
27744;SDS011;61387;48.112;8.616;2023-05-10T10:39:47;3.73;;;1.00;;
27744;SDS011;61387;48.112;8.616;2023-05-10T10:42:14;3.37;;;0.93;;
27744;SDS011;61387;48.112;8.616;2023-05-10T10:44:40;3.10;;;0.97;;
27744;SDS011;61387;48.112;8.616;2023-05-10T10:57:48;1.07;;;0.60;;
27744;SDS011;61387;48.112;8.616;2023-05-10T11:00:29;1.77;;;0.80;;
27744;SDS011;61387;48.112;8.616;2023-05-10T11:05:25;1.33;;;0.77;;
27744;SDS011;61387;48.112;8.616;2023-05-10T11:07:51;2.73;;;1.30;;
27744;SDS011;61387;48.112;8.616;2023-05-10T11:10:21;5.37;;;1.10;;
27744;SDS011;61387;48.112;8.616;2023-05-10T11:15:37;2.50;;;1.37;;
27744;SDS011;61387;48.112;8.616;2023-05-10T11:20:43;4.13;;;2.07;;
27744;SDS011;61387;48.112;8.616;2023-05-10T11:23:12;2.90;;;1.67;;
27744;SDS011;61387;48.112;8.616;2023-05-10T11:25:44;3.33;;;1.67;;
27744;SDS011;61387;48.112;8.616;2023-05-10T11:28:11;2.77;;;1.20;;
27744;SDS011;61387;48.112;8.616;2023-05-10T11:30:41;5.47;;;1.53;;
27744;SDS011;61387;48.112;8.616;2023-05-10T11:33:14;4.10;;;0.73;;
27744;SDS011;61387;48.112;8.616;2023-05-10T11:35:41;2.73;;;0.90;;
27744;SDS011;61387;48.112;8.616;2023-05-10T11:38:07;1.17;;;0.70;;
27744;SDS011;61387;48.112;8.616;2023-05-10T11:40:33;3.80;;;1.50;;
27744;SDS011;61387;48.112;8.616;2023-05-10T11:43:12;6.40;;;2.57;;
27744;SDS011;61387;48.112;8.616;2023-05-10T11:45:38;3.70;;;1.00;;
27744;SDS011;61387;48.112;8.616;2023-05-10T11:48:06;1.43;;;0.67;;
27744;SDS011;61387;48.112;8.616;2023-05-10T11:50:32;2.93;;;0.83;;
27744;SDS011;61387;48.112;8.616;2023-05-10T11:52:57;2.13;;;0.90;;
27744;SDS011;61387;48.112;8.616;2023-05-10T11:55:23;3.80;;;1.23;;
27744;SDS011;61387;48.112;8.616;2023-05-10T11:57:53;5.13;;;1.10;;
27744;SDS011;61387;48.112;8.616;2023-05-10T12:00:19;3.13;;;0.80;;
27744;SDS011;61387;48.112;8.616;2023-05-10T12:02:46;1.57;;;0.97;;
27744;SDS011;61387;48.112;8.616;2023-05-10T12:05:12;1.93;;;0.80;;
27744;SDS011;61387;48.112;8.616;2023-05-10T12:07:38;3.40;;;0.90;;
27744;SDS011;61387;48.112;8.616;2023-05-10T12:10:11;1.93;;;0.77;;
27744;SDS011;61387;48.112;8.616;2023-05-10T12:12:40;3.90;;;1.30;;
27744;SDS011;61387;48.112;8.616;2023-05-10T12:15:19;1.80;;;1.03;;
27744;SDS011;61387;48.112;8.616;2023-05-10T12:17:47;2.37;;;0.80;;
27744;SDS011;61387;48.112;8.616;2023-05-10T12:20:23;3.67;;;1.07;;
27744;SDS011;61387;48.112;8.616;2023-05-10T12:22:50;3.07;;;1.40;;
27744;SDS011;61387;48.112;8.616;2023-05-10T12:25:20;1.60;;;0.80;;
27744;SDS011;61387;48.112;8.616;2023-05-10T12:27:54;4.27;;;0.97;;
27744;SDS011;61387;48.112;8.616;2023-05-10T12:30:21;4.20;;;1.33;;
27744;SDS011;61387;48.112;8.616;2023-05-10T12:32:47;3.17;;;1.00;;
27744;SDS011;61387;48.112;8.616;2023-05-10T12:35:13;2.00;;;0.90;;
27744;SDS011;61387;48.112;8.616;2023-05-10T12:37:41;5.00;;;1.10;;
27744;SDS011;61387;48.112;8.616;2023-05-10T12:40:08;2.17;;;0.80;;
27744;SDS011;61387;48.112;8.616;2023-05-10T12:42:35;1.03;;;0.77;;
27744;SDS011;61387;48.112;8.616;2023-05-10T12:45:03;2.37;;;1.00;;
27744;SDS011;61387;48.112;8.616;2023-05-10T12:47:30;2.50;;;1.50;;
27744;SDS011;61387;48.112;8.616;2023-05-10T12:49:56;1.13;;;0.87;;
27744;SDS011;61387;48.112;8.616;2023-05-10T12:52:22;5.03;;;1.00;;
27744;SDS011;61387;48.112;8.616;2023-05-10T12:54:48;1.60;;;0.97;;
27744;SDS011;61387;48.112;8.616;2023-05-10T12:57:14;3.93;;;1.10;;
27744;SDS011;61387;48.112;8.616;2023-05-10T12:59:40;2.17;;;0.77;;
27744;SDS011;61387;48.112;8.616;2023-05-10T13:02:06;1.87;;;1.07;;
27744;SDS011;61387;48.112;8.616;2023-05-10T13:04:32;1.63;;;0.70;;
27744;SDS011;61387;48.112;8.616;2023-05-10T13:06:58;2.37;;;0.93;;
27744;SDS011;61387;48.112;8.616;2023-05-10T13:09:24;5.73;;;0.90;;
27744;SDS011;61387;48.112;8.616;2023-05-10T13:11:51;2.53;;;1.00;;
27744;SDS011;61387;48.112;8.616;2023-05-10T13:14:19;2.47;;;0.70;;
27744;SDS011;61387;48.112;8.616;2023-05-10T13:16:47;3.40;;;0.77;;
27744;SDS011;61387;48.112;8.616;2023-05-10T13:19:13;2.43;;;1.10;;
27744;SDS011;61387;48.112;8.616;2023-05-10T13:21:39;2.40;;;0.70;;
27744;SDS011;61387;48.112;8.616;2023-05-10T13:24:09;2.40;;;0.80;;
27744;SDS011;61387;48.112;8.616;2023-05-10T13:26:45;3.33;;;0.97;;
27744;SDS011;61387;48.112;8.616;2023-05-10T13:29:11;4.33;;;1.30;;
27744;SDS011;61387;48.112;8.616;2023-05-10T13:31:37;2.80;;;0.87;;
27744;SDS011;61387;48.112;8.616;2023-05-10T13:34:03;3.30;;;0.77;;
27744;SDS011;61387;48.112;8.616;2023-05-10T13:36:30;4.57;;;0.90;;
27744;SDS011;61387;48.112;8.616;2023-05-10T13:38:56;3.53;;;0.60;;
27744;SDS011;61387;48.112;8.616;2023-05-10T13:41:22;2.80;;;1.00;;
27744;SDS011;61387;48.112;8.616;2023-05-10T13:43:47;3.73;;;1.00;;
27744;SDS011;61387;48.112;8.616;2023-05-10T13:46:14;2.40;;;1.23;;
27744;SDS011;61387;48.112;8.616;2023-05-10T13:48:39;3.77;;;1.20;;
27744;SDS011;61387;48.112;8.616;2023-05-10T13:51:05;3.20;;;1.10;;
27744;SDS011;61387;48.112;8.616;2023-05-10T13:53:31;2.73;;;0.90;;
27744;SDS011;61387;48.112;8.616;2023-05-10T13:55:57;5.57;;;1.10;;
27744;SDS011;61387;48.112;8.616;2023-05-10T13:58:23;4.27;;;0.90;;
27744;SDS011;61387;48.112;8.616;2023-05-10T14:00:49;4.87;;;0.90;;
27744;SDS011;61387;48.112;8.616;2023-05-10T14:03:16;2.73;;;0.87;;
27744;SDS011;61387;48.112;8.616;2023-05-10T14:05:42;2.13;;;0.83;;
27744;SDS011;61387;48.112;8.616;2023-05-10T14:08:10;3.00;;;0.90;;
27744;SDS011;61387;48.112;8.616;2023-05-10T14:10:35;3.60;;;1.00;;
27744;SDS011;61387;48.112;8.616;2023-05-10T14:13:03;3.93;;;1.00;;
27744;SDS011;61387;48.112;8.616;2023-05-10T14:15:29;2.27;;;0.97;;
27744;SDS011;61387;48.112;8.616;2023-05-10T14:17:56;2.23;;;1.20;;
27744;SDS011;61387;48.112;8.616;2023-05-10T14:20:22;3.73;;;1.00;;
27744;SDS011;61387;48.112;8.616;2023-05-10T14:22:48;3.03;;;0.70;;
27744;SDS011;61387;48.112;8.616;2023-05-10T14:25:14;0.83;;;0.50;;
27744;SDS011;61387;48.112;8.616;2023-05-10T14:27:40;2.50;;;0.80;;
27744;SDS011;61387;48.112;8.616;2023-05-10T14:30:06;1.13;;;0.40;;
27744;SDS011;61387;48.112;8.616;2023-05-10T14:32:32;2.90;;;0.87;;
27744;SDS011;61387;48.112;8.616;2023-05-10T14:34:58;1.37;;;0.67;;
27744;SDS011;61387;48.112;8.616;2023-05-10T14:37:25;4.60;;;0.70;;
27744;SDS011;61387;48.112;8.616;2023-05-10T14:39:50;2.17;;;0.60;;
27744;SDS011;61387;48.112;8.616;2023-05-10T14:42:17;1.53;;;0.53;;
27744;SDS011;61387;48.112;8.616;2023-05-10T14:44:43;1.27;;;0.50;;
27744;SDS011;61387;48.112;8.616;2023-05-10T14:47:09;2.13;;;0.70;;
27744;SDS011;61387;48.112;8.616;2023-05-10T14:49:34;5.47;;;0.90;;
27744;SDS011;61387;48.112;8.616;2023-05-10T14:52:00;1.03;;;0.50;;
27744;SDS011;61387;48.112;8.616;2023-05-10T14:54:27;0.60;;;0.40;;
27744;SDS011;61387;48.112;8.616;2023-05-10T14:56:52;1.90;;;0.90;;
27744;SDS011;61387;48.112;8.616;2023-05-10T14:59:19;3.90;;;0.87;;
27744;SDS011;61387;48.112;8.616;2023-05-10T15:01:46;0.80;;;0.50;;
27744;SDS011;61387;48.112;8.616;2023-05-10T15:04:12;2.37;;;0.50;;
27744;SDS011;61387;48.112;8.616;2023-05-10T15:06:38;0.53;;;0.30;;
27744;SDS011;61387;48.112;8.616;2023-05-10T15:09:04;1.47;;;0.50;;
27744;SDS011;61387;48.112;8.616;2023-05-10T15:11:30;1.23;;;0.70;;
27744;SDS011;61387;48.112;8.616;2023-05-10T15:13:55;3.23;;;0.80;;
27744;SDS011;61387;48.112;8.616;2023-05-10T15:16:21;2.80;;;0.50;;
27744;SDS011;61387;48.112;8.616;2023-05-10T15:18:48;2.33;;;0.50;;
27744;SDS011;61387;48.112;8.616;2023-05-10T15:21:14;0.90;;;0.30;;
27744;SDS011;61387;48.112;8.616;2023-05-10T15:23:40;2.23;;;0.60;;
27744;SDS011;61387;48.112;8.616;2023-05-10T15:26:05;1.60;;;0.50;;
27744;SDS011;61387;48.112;8.616;2023-05-10T15:28:32;1.13;;;0.50;;
27744;SDS011;61387;48.112;8.616;2023-05-10T15:30:58;0.70;;;0.30;;